createdAt,value
2022-09-30T00:00:22.728Z,9.38
2022-09-30T00:03:24.642Z,8.93
2022-09-30T00:06:29.621Z,8.98
2022-09-30T00:09:31.268Z,8.30
2022-09-30T00:12:33.117Z,8.88
2022-09-30T00:15:34.704Z,8.43
2022-09-30T00:18:37.397Z,8.95
2022-09-30T00:21:39.285Z,9.05
2022-09-30T00:24:40.904Z,9.07
2022-09-30T00:27:42.620Z,8.38
2022-09-30T00:30:44.263Z,9.23
2022-09-30T00:34:06.782Z,8.85
2022-09-30T00:37:08.954Z,9.00
2022-09-30T00:40:11.512Z,8.57
2022-09-30T00:43:20.225Z,9.65
2022-09-30T00:46:44.663Z,9.23
2022-09-30T00:49:46.749Z,9.35
2022-09-30T00:53:19.962Z,9.65
2022-09-30T00:56:26.277Z,9.10
2022-09-30T00:59:33.456Z,9.85
2022-09-30T01:02:36.379Z,10.02
2022-09-30T01:05:38.092Z,9.80
2022-09-30T01:08:40.399Z,10.18
2022-09-30T01:28:43.141Z,10.65
2022-09-30T01:31:53.752Z,11.63
2022-09-30T01:35:23.756Z,10.45
2022-09-30T01:38:29.235Z,11.37
2022-09-30T01:42:10.001Z,10.93
2022-09-30T01:49:54.160Z,13.35
2022-09-30T01:53:09.731Z,12.90
2022-09-30T01:56:18.463Z,11.77
2022-09-30T01:59:22.194Z,13.52
2022-09-30T02:02:31.700Z,12.82
2022-09-30T02:05:41.593Z,14.05
2022-09-30T02:08:52.003Z,14.87
2022-09-30T02:11:56.467Z,14.68
2022-09-30T02:15:12.333Z,14.57
2022-09-30T02:18:35.550Z,14.45
2022-09-30T02:21:41.741Z,14.75
2022-09-30T02:24:45.986Z,14.80
2022-09-30T02:27:56.618Z,14.88
2022-09-30T02:31:02.107Z,14.40
2022-09-30T02:34:11.629Z,13.95
2022-09-30T02:37:27.923Z,13.52
2022-09-30T02:40:39.846Z,13.77
2022-09-30T02:43:42.201Z,14.68
2022-09-30T02:46:54.967Z,15.25
2022-09-30T02:50:24.466Z,13.63
2022-09-30T02:53:37.622Z,13.75
2022-09-30T02:57:23.949Z,14.15
2022-09-30T03:00:26.673Z,13.50
2022-09-30T03:03:32.566Z,14.60
2022-09-30T03:06:36.616Z,15.10
2022-09-30T03:09:38.589Z,14.70
2022-09-30T03:13:18.773Z,14.93
2022-09-30T03:16:51.028Z,13.93
2022-09-30T03:20:18.654Z,14.95
2022-09-30T03:23:47.010Z,15.43
2022-09-30T03:27:32.661Z,14.48
2022-09-30T03:30:48.951Z,16.85
2022-09-30T03:34:15.909Z,15.68
2022-09-30T03:37:31.399Z,16.00
2022-09-30T03:40:42.171Z,15.43
2022-09-30T03:47:01.688Z,15.77
2022-09-30T03:50:08.206Z,15.70
2022-09-30T03:53:12.439Z,15.57
2022-09-30T03:56:14.325Z,15.27
2022-09-30T03:59:25.505Z,16.23
2022-09-30T04:02:27.942Z,17.73
2022-09-30T04:05:32.179Z,16.23
2022-09-30T04:08:34.095Z,16.33
2022-09-30T04:11:35.757Z,16.58
2022-09-30T04:14:37.740Z,15.23
2022-09-30T04:17:39.395Z,16.50
2022-09-30T04:20:40.967Z,16.65
2022-09-30T04:23:43.354Z,15.70
2022-09-30T04:26:44.927Z,16.85
2022-09-30T04:29:46.559Z,17.48
2022-09-30T04:32:48.209Z,15.73
2022-09-30T04:35:54.047Z,17.00
2022-09-30T04:38:55.765Z,16.90
2022-09-30T04:41:57.427Z,17.50
2022-09-30T04:44:59.197Z,17.90
2022-09-30T04:48:00.985Z,16.58
2022-09-30T04:51:02.734Z,14.85
2022-09-30T04:54:04.534Z,17.55
2022-09-30T04:57:06.239Z,17.25
2022-09-30T05:00:09.313Z,18.20
2022-09-30T05:03:11.162Z,16.88
2022-09-30T05:06:14.392Z,16.60
2022-09-30T05:09:16.192Z,17.10
2022-09-30T05:12:17.889Z,16.73
2022-09-30T05:15:19.513Z,15.73
2022-09-30T05:18:22.083Z,15.18
2022-09-30T05:21:23.750Z,18.48
2022-09-30T05:24:25.583Z,18.75
2022-09-30T05:27:27.766Z,18.13
2022-09-30T05:30:29.434Z,18.00
2022-09-30T05:33:31.121Z,19.80
2022-09-30T05:36:32.698Z,19.08
2022-09-30T05:39:34.246Z,20.08
2022-09-30T05:42:36.139Z,19.38
2022-09-30T05:45:38.547Z,18.77
2022-09-30T05:48:40.539Z,18.13
2022-09-30T05:51:42.347Z,18.05
2022-09-30T05:54:43.994Z,19.33
2022-09-30T05:57:48.817Z,20.15
2022-09-30T06:00:51.212Z,19.40
2022-09-30T06:03:53.125Z,18.85
2022-09-30T06:06:54.787Z,19.77
2022-09-30T06:09:56.460Z,17.80
2022-09-30T06:12:59.165Z,16.88
2022-09-30T06:16:02.235Z,17.73
2022-09-30T06:19:04.101Z,16.42
2022-09-30T06:22:05.696Z,18.67
2022-09-30T06:25:07.730Z,17.63
2022-09-30T06:28:09.290Z,19.45
2022-09-30T06:31:11.701Z,18.63
2022-09-30T06:34:13.644Z,19.05
2022-09-30T06:37:16.398Z,18.88
2022-09-30T06:40:21.127Z,17.17
2022-09-30T06:43:22.737Z,18.23
2022-09-30T06:46:29.776Z,16.92
2022-09-30T06:49:43.773Z,17.95
2022-09-30T06:52:48.140Z,16.75
2022-09-30T06:55:55.866Z,15.00
2022-09-30T06:58:57.494Z,14.63
2022-09-30T07:01:59.427Z,14.55
2022-09-30T07:05:04.123Z,12.88
2022-09-30T07:08:05.929Z,12.40
2022-09-30T07:11:17.081Z,12.65
2022-09-30T07:14:18.797Z,12.65
2022-09-30T07:17:20.550Z,12.43
2022-09-30T07:20:22.550Z,11.63
2022-09-30T07:23:27.050Z,11.88
2022-09-30T07:26:31.072Z,12.88
2022-09-30T07:29:56.556Z,12.82
2022-09-30T07:32:55.606Z,13.95
2022-09-30T07:35:59.268Z,12.98
2022-09-30T07:39:06.118Z,14.43
2022-09-30T07:42:08.660Z,15.32
2022-09-30T07:45:11.140Z,15.85
2022-09-30T07:48:32.770Z,13.98
2022-09-30T07:51:38.240Z,15.52
2022-09-30T07:54:45.354Z,17.38
2022-09-30T07:57:49.728Z,17.93
2022-09-30T08:00:51.883Z,20.98
2022-09-30T08:03:59.496Z,20.88
2022-09-30T08:07:02.330Z,19.42
2022-09-30T08:10:04.432Z,20.55
2022-09-30T08:13:06.524Z,20.40
2022-09-30T08:16:08.416Z,22.83
2022-09-30T08:19:16.115Z,20.45
2022-09-30T08:22:17.918Z,21.73
2022-09-30T08:25:19.673Z,21.48
2022-09-30T08:28:21.250Z,21.63
2022-09-30T08:31:24.087Z,20.95
2022-09-30T08:34:25.886Z,21.88
2022-09-30T08:37:27.482Z,20.67
2022-09-30T08:40:32.303Z,22.70
2022-09-30T08:43:54.499Z,21.00
2022-09-30T08:47:23.095Z,20.15
2022-09-30T08:50:54.858Z,20.83
2022-09-30T08:53:58.966Z,21.45
2022-09-30T08:57:03.448Z,20.27
2022-09-30T09:00:12.502Z,19.27
2022-09-30T09:03:14.326Z,19.75
2022-09-30T09:06:28.821Z,20.10
2022-09-30T09:09:48.001Z,16.50
2022-09-30T09:13:07.459Z,18.35
2022-09-30T09:16:27.897Z,19.80
2022-09-30T09:20:07.410Z,21.30
2022-09-30T09:23:14.078Z,19.17
2022-09-30T09:26:16.372Z,20.02
2022-09-30T09:29:44.874Z,18.50
2022-09-30T09:32:52.297Z,18.58
2022-09-30T09:36:12.624Z,18.63
2022-09-30T09:39:37.693Z,18.02
2022-09-30T09:42:52.017Z,19.13
2022-09-30T09:45:56.382Z,17.45
2022-09-30T09:49:24.103Z,17.08
2022-09-30T09:52:43.343Z,15.80
2022-09-30T09:55:45.402Z,16.75
2022-09-30T09:59:18.205Z,15.52
2022-09-30T10:02:30.859Z,15.88
2022-09-30T10:09:01.744Z,14.32
2022-09-30T10:12:06.373Z,13.77
2022-09-30T10:15:26.296Z,13.90
2022-09-30T10:18:38.067Z,13.63
2022-09-30T10:21:39.624Z,13.05
2022-09-30T10:24:41.238Z,15.27
2022-09-30T10:27:51.450Z,12.98
2022-09-30T10:31:14.460Z,13.50
2022-09-30T10:34:24.290Z,13.70
2022-09-30T10:37:26.033Z,12.38
2022-09-30T10:40:30.151Z,14.13
2022-09-30T10:43:48.132Z,12.55
2022-09-30T10:46:53.177Z,12.52
2022-09-30T10:50:11.570Z,11.32
2022-09-30T10:53:21.194Z,11.38
2022-09-30T10:56:41.712Z,11.00
2022-09-30T10:59:44.807Z,11.20
2022-09-30T11:02:57.956Z,10.18
2022-09-30T11:06:01.142Z,10.35
2022-09-30T11:09:18.143Z,9.80
2022-09-30T11:12:49.041Z,11.25
2022-09-30T11:16:08.898Z,9.52
2022-09-30T11:19:21.965Z,10.32
2022-09-30T11:22:45.171Z,11.23
2022-09-30T11:26:04.879Z,10.70
2022-09-30T11:29:27.825Z,9.23
2022-09-30T11:32:35.331Z,9.35
2022-09-30T11:36:08.590Z,8.32
2022-09-30T11:39:32.020Z,9.65
2022-09-30T11:42:45.086Z,9.65
2022-09-30T11:46:08.363Z,9.20
2022-09-30T11:49:21.508Z,8.77
2022-09-30T11:52:50.944Z,8.20
2022-09-30T11:56:20.611Z,8.57
2022-09-30T11:59:30.897Z,9.20
2022-09-30T12:02:50.341Z,9.07
2022-09-30T12:05:59.690Z,7.65
2022-09-30T12:09:24.037Z,8.10
2022-09-30T12:12:25.650Z,8.73
2022-09-30T12:15:28.715Z,8.07
2022-09-30T12:18:48.855Z,7.78
2022-09-30T12:22:00.421Z,8.20
2022-09-30T12:25:11.524Z,7.38
2022-09-30T12:29:03.474Z,7.30
2022-09-30T12:32:24.155Z,6.05
2022-09-30T12:36:03.613Z,6.30
2022-09-30T12:39:34.432Z,6.60
2022-09-30T12:43:11.392Z,7.00
2022-09-30T12:46:32.515Z,6.63
2022-09-30T12:49:38.558Z,6.63
2022-09-30T12:52:40.252Z,7.00
2022-09-30T12:55:42.339Z,6.93
2022-09-30T12:58:50.916Z,7.28
2022-09-30T13:01:52.850Z,7.03
2022-09-30T13:04:54.521Z,6.90
2022-09-30T13:08:05.078Z,6.65
2022-09-30T13:14:22.342Z,6.70
2022-09-30T13:17:27.082Z,7.35
2022-09-30T13:21:18.766Z,6.45
2022-09-30T13:28:21.995Z,6.05
2022-09-30T13:34:57.854Z,5.45
2022-09-30T13:38:14.657Z,5.90
2022-09-30T13:41:24.858Z,5.35
2022-09-30T13:44:45.485Z,5.32
2022-09-30T13:50:55.010Z,5.00
2022-09-30T13:54:03.637Z,5.53
2022-09-30T13:57:07.365Z,5.72
2022-09-30T14:00:18.543Z,5.60
2022-09-30T14:03:41.767Z,5.72
2022-09-30T14:06:49.468Z,4.55
2022-09-30T14:10:21.404Z,5.00
2022-09-30T14:13:52.018Z,5.03
2022-09-30T14:20:34.756Z,4.72
2022-09-30T14:23:36.802Z,5.20
2022-09-30T14:26:41.352Z,5.20
2022-09-30T14:29:57.161Z,5.68
2022-09-30T14:33:09.641Z,5.13
2022-09-30T14:36:18.959Z,5.40
2022-09-30T14:39:26.127Z,4.80
2022-09-30T14:42:35.864Z,4.90
2022-09-30T14:45:42.176Z,6.00
2022-09-30T14:48:45.676Z,5.53
2022-09-30T14:51:48.978Z,4.50
2022-09-30T14:54:51.511Z,4.70
2022-09-30T14:58:46.071Z,5.00
2022-09-30T15:02:37.475Z,5.10
2022-09-30T15:05:40.427Z,5.60
2022-09-30T15:09:37.696Z,4.93
2022-09-30T15:12:42.845Z,4.47
2022-09-30T15:15:44.929Z,4.30
2022-09-30T15:18:46.827Z,4.63
2022-09-30T15:21:51.906Z,4.55
2022-09-30T15:24:54.863Z,4.38
2022-09-30T15:27:56.796Z,4.10
2022-09-30T15:30:59.089Z,4.63
2022-09-30T15:34:24.108Z,4.30
2022-09-30T15:37:33.804Z,3.88
2022-09-30T15:40:49.958Z,4.13
2022-09-30T15:43:53.934Z,3.88
2022-09-30T15:47:08.389Z,5.15
2022-09-30T15:50:37.822Z,4.43
2022-09-30T15:53:39.470Z,4.05
2022-09-30T15:56:43.107Z,3.38
2022-09-30T16:00:00.270Z,3.28
2022-09-30T16:03:19.092Z,3.65
2022-09-30T16:06:25.433Z,3.30
2022-09-30T16:09:31.598Z,2.90
2022-09-30T16:12:35.851Z,3.13
2022-09-30T16:15:40.699Z,3.00
2022-09-30T16:18:44.195Z,2.83
2022-09-30T16:21:51.039Z,2.80
2022-09-30T16:25:09.003Z,2.97
2022-09-30T16:28:14.390Z,2.60
2022-09-30T16:31:16.305Z,2.55
2022-09-30T16:34:26.768Z,2.50
2022-09-30T16:37:28.542Z,2.40
2022-09-30T16:40:39.195Z,2.50
2022-09-30T16:46:42.523Z,2.35
2022-09-30T16:49:46.276Z,1.90
2022-09-30T16:52:48.089Z,2.20
2022-09-30T16:55:50.109Z,2.55
2022-09-30T16:58:51.847Z,2.10
2022-09-30T17:01:53.514Z,2.10
2022-09-30T17:04:55.207Z,2.50
2022-09-30T17:07:59.021Z,2.25
2022-09-30T17:11:01.032Z,2.47
2022-09-30T17:14:04.497Z,1.92
2022-09-30T17:17:09.754Z,2.30
2022-09-30T17:20:14.490Z,2.40
2022-09-30T17:23:16.145Z,2.25
2022-09-30T17:26:18.090Z,2.13
2022-09-30T17:29:38.834Z,2.22
2022-09-30T17:32:42.473Z,2.30
2022-09-30T17:35:44.174Z,2.20
2022-09-30T17:38:45.861Z,2.20
2022-09-30T17:42:06.113Z,2.20
2022-09-30T17:45:08.374Z,2.97
2022-09-30T17:48:12.041Z,2.42
2022-09-30T17:51:16.232Z,2.92
2022-09-30T17:54:17.796Z,2.70
2022-09-30T17:57:20.748Z,2.55
2022-09-30T18:00:22.950Z,2.50
2022-09-30T18:03:25.615Z,2.33
2022-09-30T18:06:28.593Z,2.55
2022-09-30T18:09:30.171Z,3.13
2022-09-30T18:12:34.337Z,2.92
2022-09-30T18:15:39.004Z,3.00
2022-09-30T18:18:40.621Z,2.75
2022-09-30T18:21:42.288Z,2.75
2022-09-30T18:25:02.490Z,2.92
2022-09-30T18:28:06.043Z,3.40
2022-09-30T18:31:08.476Z,3.33
2022-09-30T18:34:13.184Z,2.88
2022-09-30T18:37:14.767Z,3.30
2022-09-30T18:40:25.758Z,3.05
2022-09-30T18:43:27.796Z,3.30
2022-09-30T18:46:30.681Z,2.72
2022-09-30T18:49:32.624Z,3.20
2022-09-30T18:52:34.382Z,3.15
2022-09-30T18:55:38.061Z,3.50
2022-09-30T18:58:40.095Z,3.42
2022-09-30T19:01:43.573Z,3.03
2022-09-30T19:04:46.071Z,3.85
2022-09-30T19:07:48.132Z,3.50
2022-09-30T19:10:50.497Z,3.53
2022-09-30T19:13:52.886Z,2.90
2022-09-30T19:16:54.582Z,3.00
2022-09-30T19:19:56.219Z,2.70
2022-09-30T19:22:58.105Z,2.97
2022-09-30T19:26:02.494Z,3.30
2022-09-30T19:29:05.395Z,3.75
2022-09-30T19:32:09.621Z,3.60
2022-09-30T19:35:12.430Z,3.78
2022-09-30T19:38:15.209Z,3.45
2022-09-30T19:41:17.458Z,3.25
2022-09-30T19:44:20.053Z,3.47
2022-09-30T19:47:21.654Z,3.33
2022-09-30T19:50:23.246Z,3.60
2022-09-30T19:53:30.759Z,3.58
2022-09-30T19:56:42.018Z,3.35
2022-09-30T19:59:43.830Z,3.70
2022-09-30T20:02:45.422Z,3.88
2022-09-30T20:05:47.026Z,4.13
2022-09-30T20:08:54.300Z,3.85
2022-09-30T20:11:55.993Z,4.22
2022-09-30T20:15:19.374Z,4.35
2022-09-30T20:18:40.599Z,4.13
2022-09-30T20:21:42.279Z,4.57
2022-09-30T20:24:44.075Z,4.32
2022-09-30T20:27:49.835Z,3.97
2022-09-30T20:30:54.040Z,4.13
2022-09-30T20:33:57.528Z,3.65
2022-09-30T20:36:59.196Z,3.95
2022-09-30T20:40:01.139Z,3.85
2022-09-30T20:43:03.972Z,4.18
2022-09-30T20:46:08.227Z,4.03
2022-09-30T20:49:09.967Z,3.75
2022-09-30T20:52:11.667Z,4.22
2022-09-30T20:55:13.304Z,3.63
2022-09-30T20:58:14.989Z,3.53
2022-09-30T21:01:19.318Z,3.67
2022-09-30T21:04:21.371Z,3.45
2022-09-30T21:07:23.654Z,3.63
2022-09-30T21:10:25.329Z,3.67
2022-09-30T21:13:26.926Z,3.90
2022-09-30T21:16:29.545Z,3.40
2022-09-30T21:19:31.435Z,3.80
2022-09-30T21:22:33.071Z,3.33
2022-09-30T21:25:34.831Z,3.35
2022-09-30T21:37:11.411Z,3.47
2022-09-30T21:40:12.986Z,3.47
2022-09-30T21:43:14.548Z,3.80
2022-09-30T21:46:18.303Z,3.63
2022-09-30T21:49:22.927Z,3.78
2022-09-30T21:52:24.585Z,3.72
2022-09-30T21:55:27.132Z,4.00
2022-09-30T21:58:31.631Z,3.88
2022-09-30T22:01:33.634Z,4.15
2022-09-30T22:04:37.463Z,4.28
2022-09-30T22:07:39.376Z,4.22
2022-09-30T22:10:43.271Z,4.88
2022-09-30T22:13:46.250Z,4.20
2022-09-30T22:16:48.179Z,4.60
2022-09-30T22:19:49.835Z,4.78
2022-09-30T22:22:51.402Z,4.43
2022-09-30T22:25:52.977Z,4.75
2022-09-30T22:29:00.543Z,4.82
2022-09-30T22:32:02.496Z,4.68
2022-09-30T22:35:23.558Z,4.97
2022-09-30T22:38:25.347Z,5.13
2022-09-30T22:41:26.867Z,4.53
2022-09-30T22:44:32.841Z,5.00
2022-09-30T22:47:35.815Z,4.88
2022-09-30T22:50:37.392Z,4.88
2022-09-30T22:53:38.895Z,5.32
2022-09-30T22:56:40.420Z,5.10
2022-09-30T22:59:42.813Z,5.15
2022-09-30T23:02:45.064Z,4.60
2022-09-30T23:05:46.724Z,4.72
2022-09-30T23:08:49.092Z,5.45
2022-09-30T23:11:54.805Z,4.57
2022-09-30T23:14:57.370Z,5.80
2022-09-30T23:17:58.925Z,5.30
2022-09-30T23:21:01.824Z,5.55
2022-09-30T23:24:03.678Z,5.45
2022-09-30T23:27:05.218Z,5.68
2022-09-30T23:30:07.461Z,5.28
2022-09-30T23:33:12.277Z,5.10
2022-09-30T23:36:16.194Z,5.45
2022-09-30T23:39:19.516Z,5.68
2022-09-30T23:42:21.184Z,5.70
2022-09-30T23:45:22.900Z,5.78
2022-09-30T23:48:24.731Z,5.47
2022-09-30T23:51:26.328Z,5.22
2022-09-30T23:54:27.866Z,5.65
2022-09-30T23:57:29.424Z,5.03
